Time;durP1;ratioP1;P1;durP2;ratioP2;P2;SDS_P1;SDS_P2;PMS_P1;PMS_P2;Temp;Humidity;BMP_temperature;BMP_pressure;BME280_temperature;BME280_humidity;BME280_pressure;Samples;Min_cycle;Max_cycle;Signal;HPM_P1;HPM_P2
2023/09/24 00:01:50;;;;;;;7.15;1.92;;;;;;;;;;4896445;29;20111;-82
2023/09/24 00:04:17;;;;;;;7.40;1.70;;;;;;;;;;4893502;29;20151;-81
2023/09/24 00:06:45;;;;;;;5.10;2.13;;;;;;;;;;4894183;29;20033;-80
2023/09/24 00:09:13;;;;;;;5.15;1.60;;;;;;;;;;4894040;29;20037;-81
2023/09/24 00:11:39;;;;;;;3.60;1.85;;;;;;;;;;4896488;29;20120;-81
2023/09/24 00:14:05;;;;;;;5.70;2.05;;;;;;;;;;4894932;29;20396;-80
2023/09/24 00:16:31;;;;;;;5.85;2.13;;;;;;;;;;4884939;29;20119;-82
2023/09/24 00:18:57;;;;;;;9.38;1.90;;;;;;;;;;4862468;29;20037;-81
2023/09/24 00:21:24;;;;;;;5.90;2.00;;;;;;;;;;4896314;29;20048;-81
2023/09/24 00:23:50;;;;;;;7.18;2.08;;;;;;;;;;4894492;29;20040;-81
2023/09/24 00:26:18;;;;;;;8.85;2.08;;;;;;;;;;4885843;29;20044;-80
2023/09/24 00:28:44;;;;;;;6.97;1.88;;;;;;;;;;4895697;29;20127;-81
2023/09/24 00:31:10;;;;;;;6.53;2.05;;;;;;;;;;4895883;29;20552;-80
2023/09/24 00:33:36;;;;;;;5.78;1.88;;;;;;;;;;4885672;29;20043;-81
2023/09/24 00:36:03;;;;;;;7.88;2.10;;;;;;;;;;4894749;29;20032;-81
2023/09/24 00:38:29;;;;;;;8.13;1.90;;;;;;;;;;4878428;29;20136;-82
2023/09/24 00:40:55;;;;;;;7.00;2.05;;;;;;;;;;4893867;29;20049;-78
2023/09/24 00:43:28;;;;;;;4.40;1.35;;;;;;;;;;4878032;29;20410;-82
2023/09/24 00:45:55;;;;;;;6.72;1.63;;;;;;;;;;4895880;29;20076;-81
2023/09/24 00:48:24;;;;;;;5.75;1.52;;;;;;;;;;4894109;29;20037;-82
2023/09/24 00:50:51;;;;;;;3.92;1.38;;;;;;;;;;4894709;29;20055;-80
2023/09/24 00:53:17;;;;;;;5.13;1.55;;;;;;;;;;4896012;29;20032;-80
2023/09/24 00:55:43;;;;;;;5.03;1.95;;;;;;;;;;4894149;29;20591;-82
2023/09/24 00:58:10;;;;;;;4.20;1.63;;;;;;;;;;4894812;29;20127;-81
2023/09/24 01:00:37;;;;;;;9.02;1.75;;;;;;;;;;4874393;29;20113;-80
2023/09/24 01:03:04;;;;;;;4.13;1.48;;;;;;;;;;4860485;29;20467;-82
2023/09/24 01:05:31;;;;;;;4.95;1.35;;;;;;;;;;4885300;29;20117;-82
2023/09/24 01:07:57;;;;;;;3.45;1.50;;;;;;;;;;4893612;29;20037;-81
2023/09/24 01:10:23;;;;;;;6.93;1.60;;;;;;;;;;4878729;29;20057;-81
2023/09/24 01:12:58;;;;;;;7.20;1.83;;;;;;;;;;4893279;29;20124;-81
2023/09/24 01:15:25;;;;;;;5.25;1.40;;;;;;;;;;4895231;29;20041;-81
2023/09/24 01:17:52;;;;;;;4.32;1.33;;;;;;;;;;4894837;29;20128;-81
2023/09/24 01:20:21;;;;;;;5.40;1.50;;;;;;;;;;4894160;29;20410;-81
2023/09/24 01:22:47;;;;;;;6.55;1.70;;;;;;;;;;4895555;29;20381;-81
2023/09/24 01:25:13;;;;;;;3.25;1.75;;;;;;;;;;4895330;29;20055;-81
2023/09/24 01:27:39;;;;;;;5.45;1.52;;;;;;;;;;4893497;29;20037;-82
2023/09/24 01:30:06;;;;;;;12.95;8.10;;;;;;;;;;4895222;29;20039;-80
2023/09/24 01:32:32;;;;;;;6.88;1.70;;;;;;;;;;4886383;29;20376;-84
2023/09/24 01:35:06;;;;;;;6.80;2.20;;;;;;;;;;4890462;29;20068;-81
2023/09/24 01:37:34;;;;;;;4.05;1.85;;;;;;;;;;4903435;29;20043;-83
2023/09/24 01:40:06;;;;;;;5.32;1.83;;;;;;;;;;4902560;29;20037;-84
2023/09/24 01:42:34;;;;;;;3.47;1.38;;;;;;;;;;4887551;29;20119;-77
2023/09/24 01:45:00;;;;;;;7.20;2.30;;;;;;;;;;4888663;29;20029;-83
2023/09/24 01:47:26;;;;;;;3.97;1.90;;;;;;;;;;4896901;29;20048;-78
2023/09/24 01:49:52;;;;;;;6.15;1.83;;;;;;;;;;4898573;29;20608;-85
2023/09/24 01:52:19;;;;;;;6.95;2.17;;;;;;;;;;4895750;29;20044;-84
2023/09/24 01:54:47;;;;;;;8.70;2.15;;;;;;;;;;4895332;29;20028;-85
2023/09/24 01:57:13;;;;;;;10.95;2.70;;;;;;;;;;4898506;29;20052;-84
2023/09/24 01:59:39;;;;;;;7.40;2.50;;;;;;;;;;4898610;29;20135;-82
2023/09/24 02:02:06;;;;;;;7.60;3.38;;;;;;;;;;4896723;29;20415;-80
2023/09/24 02:04:32;;;;;;;9.50;2.72;;;;;;;;;;4887470;29;20040;-83
2023/09/24 02:07:00;;;;;;;7.13;2.70;;;;;;;;;;4893951;29;20036;-84
2023/09/24 02:09:26;;;;;;;6.35;3.63;;;;;;;;;;4897803;29;20032;-83
2023/09/24 02:11:54;;;;;;;6.43;2.70;;;;;;;;;;4897826;29;20486;-83
2023/09/24 02:14:20;;;;;;;5.55;3.17;;;;;;;;;;4896945;29;20116;-84
2023/09/24 02:16:46;;;;;;;6.38;2.58;;;;;;;;;;4902448;29;20071;-80
2023/09/24 02:19:14;;;;;;;6.07;2.55;;;;;;;;;;4903510;29;20569;-83
2023/09/24 02:21:40;;;;;;;9.05;2.88;;;;;;;;;;4900841;29;20115;-81
2023/09/24 02:24:07;;;;;;;8.55;2.90;;;;;;;;;;4898760;29;20044;-82
2023/09/24 02:26:33;;;;;;;8.77;3.38;;;;;;;;;;4886081;29;20033;-81
2023/09/24 02:28:59;;;;;;;6.13;3.20;;;;;;;;;;4879306;29;20029;-80
2023/09/24 02:31:26;;;;;;;6.45;3.03;;;;;;;;;;4889588;29;20044;-80
2023/09/24 02:33:52;;;;;;;7.57;3.35;;;;;;;;;;4880238;29;20120;-81
2023/09/24 02:36:18;;;;;;;10.30;3.00;;;;;;;;;;4895449;29;20033;-80
2023/09/24 02:38:44;;;;;;;5.93;3.10;;;;;;;;;;4904867;29;20043;-80
2023/09/24 02:41:11;;;;;;;5.88;3.10;;;;;;;;;;4897097;29;20040;-79
2023/09/24 02:43:37;;;;;;;5.95;3.38;;;;;;;;;;4898083;29;20024;-81
2023/09/24 02:46:06;;;;;;;10.85;3.63;;;;;;;;;;4889425;29;20029;-78
2023/09/24 02:48:36;;;;;;;8.18;3.35;;;;;;;;;;4894867;29;20040;-81
2023/09/24 02:51:09;;;;;;;7.13;3.40;;;;;;;;;;4895591;29;20041;-80
2023/09/24 02:53:38;;;;;;;4.40;3.08;;;;;;;;;;4897342;29;20096;-81
2023/09/24 02:56:04;;;;;;;13.38;3.60;;;;;;;;;;4896802;29;20035;-81
2023/09/24 02:58:31;;;;;;;6.85;3.30;;;;;;;;;;4894345;29;20116;-76
2023/09/24 03:00:57;;;;;;;9.52;3.83;;;;;;;;;;4897400;29;20103;-82
2023/09/24 03:03:24;;;;;;;9.05;3.45;;;;;;;;;;4897453;29;20571;-82
2023/09/24 03:05:51;;;;;;;7.60;3.63;;;;;;;;;;4894503;29;20056;-82
2023/09/24 03:08:17;;;;;;;6.45;3.30;;;;;;;;;;4895893;29;20036;-81
2023/09/24 03:10:43;;;;;;;9.85;3.60;;;;;;;;;;4896559;29;20044;-82
2023/09/24 03:13:09;;;;;;;5.90;3.38;;;;;;;;;;4895055;29;20374;-82
2023/09/24 03:15:36;;;;;;;12.30;4.00;;;;;;;;;;4893860;29;20048;-78
2023/09/24 03:18:02;;;;;;;9.75;4.45;;;;;;;;;;4878427;29;20042;-81
2023/09/24 03:20:29;;;;;;;8.18;3.75;;;;;;;;;;4879509;29;20069;-78
2023/09/24 03:23:02;;;;;;;9.63;4.13;;;;;;;;;;4880521;29;20040;-80
2023/09/24 03:25:29;;;;;;;12.75;4.20;;;;;;;;;;4886762;29;20039;-78
2023/09/24 03:27:56;;;;;;;10.65;3.58;;;;;;;;;;4897187;29;20496;-78
2023/09/24 03:30:23;;;;;;;8.32;3.90;;;;;;;;;;4896872;29;20491;-82
2023/09/24 03:32:53;;;;;;;8.00;3.63;;;;;;;;;;4886419;29;20049;-82
2023/09/24 03:35:26;;;;;;;11.35;5.05;;;;;;;;;;4880001;29;20489;-83
2023/09/24 03:37:52;;;;;;;9.85;5.10;;;;;;;;;;4874659;29;20044;-81
2023/09/24 03:40:19;;;;;;;10.63;4.78;;;;;;;;;;4878418;29;20072;-83
2023/09/24 03:42:46;;;;;;;11.15;5.05;;;;;;;;;;4878722;29;20033;-82
2023/09/24 03:45:13;;;;;;;9.85;5.45;;;;;;;;;;4897030;29;20423;-82
2023/09/24 03:47:40;;;;;;;13.77;5.57;;;;;;;;;;4872792;29;20471;-83
2023/09/24 03:50:09;;;;;;;8.48;4.97;;;;;;;;;;4881130;29;21915;-78
2023/09/24 03:52:40;;;;;;;10.98;5.53;;;;;;;;;;4888743;29;20115;-76
2023/09/24 03:55:06;;;;;;;13.32;4.90;;;;;;;;;;4880627;29;20088;-77
2023/09/24 03:57:32;;;;;;;7.43;5.20;;;;;;;;;;4895871;29;20052;-78
2023/09/24 03:59:58;;;;;;;11.50;6.05;;;;;;;;;;4895028;29;20032;-78
2023/09/24 04:02:26;;;;;;;10.10;5.05;;;;;;;;;;4892028;29;20032;-77
2023/09/24 04:04:53;;;;;;;13.10;5.63;;;;;;;;;;4894235;29;20685;-76
2023/09/24 04:07:19;;;;;;;9.48;5.93;;;;;;;;;;4893407;29;20131;-79
2023/09/24 04:09:45;;;;;;;12.98;5.85;;;;;;;;;;4865660;29;20029;-77
2023/09/24 04:12:13;;;;;;;14.73;6.00;;;;;;;;;;4890532;29;20028;-78
2023/09/24 04:14:39;;;;;;;11.52;5.80;;;;;;;;;;4895143;29;20032;-79
2023/09/24 04:17:06;;;;;;;12.82;5.93;;;;;;;;;;4893193;29;20029;-77
2023/09/24 04:19:32;;;;;;;10.55;5.00;;;;;;;;;;4889236;29;20047;-77
2023/09/24 04:21:58;;;;;;;18.05;11.70;;;;;;;;;;4891732;29;20410;-79
2023/09/24 04:24:24;;;;;;;27.45;15.70;;;;;;;;;;4886106;29;20036;-75
2023/09/24 04:26:54;;;;;;;11.90;5.57;;;;;;;;;;4873120;29;20033;-75
2023/09/24 04:29:20;;;;;;;16.02;6.47;;;;;;;;;;4889959;29;20383;-77
2023/09/24 04:31:46;;;;;;;14.00;6.03;;;;;;;;;;4893541;29;20036;-75
2023/09/24 04:34:13;;;;;;;14.90;5.65;;;;;;;;;;4884774;29;20103;-73
2023/09/24 04:36:42;;;;;;;10.77;5.47;;;;;;;;;;4891553;29;20123;-75
2023/09/24 04:39:10;;;;;;;14.45;5.65;;;;;;;;;;4883936;29;20040;-77
2023/09/24 04:41:37;;;;;;;13.90;6.07;;;;;;;;;;4884793;29;20033;-77
2023/09/24 04:44:03;;;;;;;9.50;4.93;;;;;;;;;;4877075;29;20033;-77
2023/09/24 04:46:29;;;;;;;12.73;5.60;;;;;;;;;;4890228;29;20549;-76
2023/09/24 04:48:55;;;;;;;12.52;5.25;;;;;;;;;;4894048;29;20527;-83
2023/09/24 04:51:21;;;;;;;10.52;6.85;;;;;;;;;;4895331;29;20052;-76
2023/09/24 04:53:47;;;;;;;25.77;15.15;;;;;;;;;;4894400;29;20100;-80
2023/09/24 04:56:13;;;;;;;14.85;7.35;;;;;;;;;;4876748;29;20036;-76
2023/09/24 04:58:43;;;;;;;8.68;5.18;;;;;;;;;;4892519;29;20033;-76
2023/09/24 05:01:09;;;;;;;15.73;5.72;;;;;;;;;;4891847;29;20028;-77
2023/09/24 05:03:35;;;;;;;8.95;4.60;;;;;;;;;;4895748;29;20395;-76
2023/09/24 05:06:03;;;;;;;16.17;5.43;;;;;;;;;;4892321;29;20526;-75
2023/09/24 05:08:29;;;;;;;11.23;5.07;;;;;;;;;;4892812;29;20085;-76
2023/09/24 05:10:55;;;;;;;13.68;6.57;;;;;;;;;;4886583;29;20045;-75
2023/09/24 05:13:21;;;;;;;8.05;4.90;;;;;;;;;;4866917;29;20047;-77
2023/09/24 05:15:53;;;;;;;14.50;5.50;;;;;;;;;;4894663;29;20040;-76
2023/09/24 05:18:19;;;;;;;7.90;5.00;;;;;;;;;;4895071;29;20521;-76
2023/09/24 05:20:45;;;;;;;14.23;5.40;;;;;;;;;;4896526;29;20060;-76
2023/09/24 05:23:11;;;;;;;11.57;5.28;;;;;;;;;;4894158;29;20104;-77
2023/09/24 05:25:39;;;;;;;7.97;5.28;;;;;;;;;;4897642;29;20025;-77
2023/09/24 05:28:05;;;;;;;12.80;6.07;;;;;;;;;;4891519;29;20032;-81
2023/09/24 05:30:31;;;;;;;16.83;7.35;;;;;;;;;;4902917;29;20037;-76
2023/09/24 05:32:57;;;;;;;69.28;49.95;;;;;;;;;;4889508;29;20044;-75
2023/09/24 05:35:23;;;;;;;12.10;6.10;;;;;;;;;;4898266;29;20502;-76
2023/09/24 05:37:50;;;;;;;12.60;5.93;;;;;;;;;;4897918;29;20559;-75
2023/09/24 05:40:16;;;;;;;15.80;6.13;;;;;;;;;;4896282;29;20033;-75
2023/09/24 05:42:42;;;;;;;11.80;5.63;;;;;;;;;;4892825;29;20043;-75
2023/09/24 05:45:09;;;;;;;13.55;5.97;;;;;;;;;;4894754;29;20021;-75
2023/09/24 05:47:35;;;;;;;15.23;5.85;;;;;;;;;;4890505;29;20443;-75
2023/09/24 05:50:04;;;;;;;11.15;5.68;;;;;;;;;;4894127;29;20120;-74
2023/09/24 05:52:30;;;;;;;10.45;5.45;;;;;;;;;;4896907;29;20096;-75
2023/09/24 05:54:57;;;;;;;12.10;5.88;;;;;;;;;;4896422;29;20155;-75
2023/09/24 05:57:26;;;;;;;15.48;6.40;;;;;;;;;;4891992;29;20566;-76
2023/09/24 05:59:53;;;;;;;12.82;6.72;;;;;;;;;;4873071;29;20036;-75
2023/09/24 06:02:19;;;;;;;17.40;6.90;;;;;;;;;;4889002;29;20475;-78
2023/09/24 06:04:45;;;;;;;18.50;8.48;;;;;;;;;;4897076;29;20146;-78
2023/09/24 06:07:11;;;;;;;16.65;6.45;;;;;;;;;;4891178;29;20037;-81
2023/09/24 06:09:38;;;;;;;13.45;6.80;;;;;;;;;;4893756;29;20097;-78
2023/09/24 06:12:04;;;;;;;11.13;5.80;;;;;;;;;;4879159;29;20056;-77
2023/09/24 06:14:31;;;;;;;13.65;5.95;;;;;;;;;;4887267;29;20036;-77
2023/09/24 06:16:57;;;;;;;11.43;6.28;;;;;;;;;;4884201;29;20204;-78
2023/09/24 06:19:23;;;;;;;12.85;6.07;;;;;;;;;;4896948;29;20390;-78
2023/09/24 06:21:50;;;;;;;11.50;6.00;;;;;;;;;;4880414;29;20482;-80
2023/09/24 06:24:16;;;;;;;48.83;29.77;;;;;;;;;;4881657;29;20033;-80
2023/09/24 06:26:42;;;;;;;21.20;11.60;;;;;;;;;;4891676;29;20100;-77
2023/09/24 06:29:08;;;;;;;15.43;6.53;;;;;;;;;;4881444;29;20052;-77
2023/09/24 06:31:34;;;;;;;14.70;6.28;;;;;;;;;;4874884;29;20030;-76
2023/09/24 06:34:00;;;;;;;10.63;5.82;;;;;;;;;;4895751;29;20029;-75
2023/09/24 06:36:26;;;;;;;7.88;5.90;;;;;;;;;;4887032;29;20546;-75
2023/09/24 06:38:52;;;;;;;10.73;5.75;;;;;;;;;;4890068;29;20036;-76
2023/09/24 06:41:18;;;;;;;13.15;5.57;;;;;;;;;;4887556;29;20033;-76
2023/09/24 06:43:44;;;;;;;13.73;6.15;;;;;;;;;;4897370;29;20036;-76
2023/09/24 06:46:10;;;;;;;9.48;5.70;;;;;;;;;;4896012;29;20067;-75
2023/09/24 06:48:36;;;;;;;12.32;6.28;;;;;;;;;;4897664;29;20504;-75
2023/09/24 06:51:21;;;;;;;15.15;6.05;;;;;;;;;;4892489;29;20040;-75
2023/09/24 06:53:50;;;;;;;16.08;6.70;;;;;;;;;;4896104;29;20028;-75
2023/09/24 06:56:16;;;;;;;10.82;6.20;;;;;;;;;;4893434;29;20071;-78
2023/09/24 06:58:42;;;;;;;12.05;5.80;;;;;;;;;;4893007;29;20036;-78
2023/09/24 07:01:09;;;;;;;13.13;5.18;;;;;;;;;;4895507;29;20228;-78
2023/09/24 07:03:35;;;;;;;15.77;6.47;;;;;;;;;;4877906;29;20040;-75
2023/09/24 07:06:05;;;;;;;59.72;38.35;;;;;;;;;;4880270;29;20044;-78
2023/09/24 07:08:35;;;;;;;17.30;6.68;;;;;;;;;;4888640;29;20063;-77
2023/09/24 07:11:20;;;;;;;15.35;5.78;;;;;;;;;;4893403;29;20060;-77
2023/09/24 07:13:46;;;;;;;14.52;6.18;;;;;;;;;;4888701;29;20033;-76
2023/09/24 07:16:13;;;;;;;12.32;5.88;;;;;;;;;;4894639;29;20029;-76
2023/09/24 07:18:39;;;;;;;12.30;6.43;;;;;;;;;;4892095;29;20068;-75
2023/09/24 07:21:06;;;;;;;10.85;5.68;;;;;;;;;;4889302;29;20079;-75
2023/09/24 07:23:32;;;;;;;9.60;5.70;;;;;;;;;;4892686;29;20410;-76
2023/09/24 07:25:58;;;;;;;10.88;6.20;;;;;;;;;;4905450;29;20035;-76
2023/09/24 07:28:25;;;;;;;9.80;5.43;;;;;;;;;;4891649;29;20175;-82
2023/09/24 07:30:52;;;;;;;9.90;5.55;;;;;;;;;;4885409;29;20144;-82
2023/09/24 07:33:19;;;;;;;15.15;7.32;;;;;;;;;;4888534;29;20030;-81
2023/09/24 07:35:46;;;;;;;12.63;5.32;;;;;;;;;;4887072;29;20017;-77
2023/09/24 07:38:12;;;;;;;10.45;5.35;;;;;;;;;;4894249;29;20036;-77
2023/09/24 07:40:39;;;;;;;20.77;5.57;;;;;;;;;;4884552;29;20024;-76
2023/09/24 07:43:07;;;;;;;11.02;5.60;;;;;;;;;;4878748;29;20043;-78
2023/09/24 07:45:34;;;;;;;17.48;5.50;;;;;;;;;;4893719;29;20036;-76
2023/09/24 07:48:01;;;;;;;12.20;5.10;;;;;;;;;;4895419;29;20028;-77
2023/09/24 07:50:27;;;;;;;9.63;5.18;;;;;;;;;;4896251;29;20055;-78
2023/09/24 07:52:55;;;;;;;78.82;50.72;;;;;;;;;;4895770;29;20107;-78
2023/09/24 07:55:20;;;;;;;12.60;5.50;;;;;;;;;;4894574;29;20037;-81
2023/09/24 07:57:46;;;;;;;8.18;4.35;;;;;;;;;;4895949;29;20060;-77
2023/09/24 08:00:13;;;;;;;11.30;4.72;;;;;;;;;;4878317;29;20075;-79
2023/09/24 08:02:39;;;;;;;16.35;5.05;;;;;;;;;;4878061;29;20043;-76
2023/09/24 08:05:05;;;;;;;6.40;3.92;;;;;;;;;;4885337;29;20033;-77
2023/09/24 08:07:32;;;;;;;13.93;4.82;;;;;;;;;;4891825;29;20041;-77
2023/09/24 08:09:58;;;;;;;17.38;4.22;;;;;;;;;;4879643;29;20056;-78
2023/09/24 08:12:24;;;;;;;9.80;4.45;;;;;;;;;;4895682;29;20064;-77
2023/09/24 08:14:50;;;;;;;11.82;4.38;;;;;;;;;;4896654;29;20493;-79
2023/09/24 08:17:16;;;;;;;12.40;4.05;;;;;;;;;;4893910;29;20112;-73
2023/09/24 08:19:42;;;;;;;9.65;4.85;;;;;;;;;;4877991;29;20068;-81
2023/09/24 08:22:09;;;;;;;10.15;3.83;;;;;;;;;;4894692;29;20041;-76
2023/09/24 08:24:35;;;;;;;10.00;4.20;;;;;;;;;;4877539;29;20032;-73
2023/09/24 08:27:01;;;;;;;13.25;4.00;;;;;;;;;;4895610;29;20402;-76
2023/09/24 08:29:28;;;;;;;9.55;4.10;;;;;;;;;;4880558;29;20046;-74
2023/09/24 08:31:54;;;;;;;13.38;3.85;;;;;;;;;;4881773;29;20112;-77
2023/09/24 08:34:20;;;;;;;15.10;3.92;;;;;;;;;;4895654;29;20174;-76
2023/09/24 08:36:46;;;;;;;6.68;3.28;;;;;;;;;;4894962;29;20479;-85
2023/09/24 08:39:14;;;;;;;9.73;3.60;;;;;;;;;;4894047;29;20041;-78
2023/09/24 08:41:43;;;;;;;9.10;3.47;;;;;;;;;;4887784;29;20029;-80
2023/09/24 08:44:12;;;;;;;7.93;3.20;;;;;;;;;;4895358;29;20505;-79
2023/09/24 08:46:38;;;;;;;7.50;3.22;;;;;;;;;;4895553;29;20486;-76
2023/09/24 08:49:05;;;;;;;8.95;3.22;;;;;;;;;;4893851;29;20093;-76
2023/09/24 08:51:32;;;;;;;6.25;2.78;;;;;;;;;;4897623;29;20491;-76
2023/09/24 08:53:59;;;;;;;7.60;2.90;;;;;;;;;;4893198;29;20029;-78
2023/09/24 08:56:26;;;;;;;9.23;2.72;;;;;;;;;;4881382;29;20065;-79
2023/09/24 08:58:52;;;;;;;12.00;2.80;;;;;;;;;;4899823;29;20028;-80
2023/09/24 09:01:18;;;;;;;6.97;3.17;;;;;;;;;;4895896;29;20087;-79
2023/09/24 09:03:44;;;;;;;7.60;3.60;;;;;;;;;;4891508;29;20475;-80
2023/09/24 09:06:10;;;;;;;12.23;2.80;;;;;;;;;;4884364;29;20028;-79
2023/09/24 09:08:52;;;;;;;12.48;3.53;;;;;;;;;;4899358;29;20039;-76
2023/09/24 09:11:19;;;;;;;14.63;6.43;;;;;;;;;;4880841;29;20068;-75
2023/09/24 09:13:48;;;;;;;20.70;6.85;;;;;;;;;;4893860;29;20470;-75
2023/09/24 09:16:16;;;;;;;10.68;3.22;;;;;;;;;;4896662;29;20049;-75
2023/09/24 09:18:42;;;;;;;6.32;2.83;;;;;;;;;;4893353;29;20056;-75
2023/09/24 09:21:09;;;;;;;8.52;2.70;;;;;;;;;;4893689;29;20376;-76
2023/09/24 09:23:41;;;;;;;11.30;3.25;;;;;;;;;;4897925;29;20052;-77
2023/09/24 09:26:08;;;;;;;13.50;2.50;;;;;;;;;;4894499;29;20056;-75
2023/09/24 09:28:34;;;;;;;24.85;2.90;;;;;;;;;;4865648;29;20033;-74
2023/09/24 09:31:01;;;;;;;34.03;2.60;;;;;;;;;;4894601;29;20112;-75
2023/09/24 09:33:28;;;;;;;9.32;3.03;;;;;;;;;;4873802;29;20186;-75
2023/09/24 09:35:54;;;;;;;8.32;2.92;;;;;;;;;;4872193;29;20435;-80
2023/09/24 09:38:21;;;;;;;9.05;2.25;;;;;;;;;;4890643;29;20092;-81
2023/09/24 09:40:48;;;;;;;7.25;2.00;;;;;;;;;;4892158;29;20058;-77
2023/09/24 09:43:14;;;;;;;20.08;3.08;;;;;;;;;;4897891;29;20033;-76
2023/09/24 09:45:42;;;;;;;4.47;1.90;;;;;;;;;;4895997;29;20025;-75
2023/09/24 09:48:08;;;;;;;8.32;2.28;;;;;;;;;;4883519;29;20389;-78
2023/09/24 09:50:37;;;;;;;7.97;2.30;;;;;;;;;;4879865;29;20069;-74
2023/09/24 09:53:09;;;;;;;7.30;2.10;;;;;;;;;;4894632;29;20032;-74
2023/09/24 09:55:42;;;;;;;13.45;2.40;;;;;;;;;;4873859;29;20044;-73
2023/09/24 09:58:10;;;;;;;17.50;10.73;;;;;;;;;;4879887;29;20044;-73
2023/09/24 10:00:36;;;;;;;9.40;5.65;;;;;;;;;;4886608;29;20039;-71
2023/09/24 10:03:04;;;;;;;8.85;2.80;;;;;;;;;;4882326;29;20495;-73
2023/09/24 10:05:31;;;;;;;10.35;2.30;;;;;;;;;;4889419;29;20509;-70
2023/09/24 10:07:57;;;;;;;9.27;2.00;;;;;;;;;;4888742;29;20045;-71
2023/09/24 10:10:32;;;;;;;8.27;2.45;;;;;;;;;;4892480;29;20036;-69
2023/09/24 10:13:03;;;;;;;8.55;2.13;;;;;;;;;;4898690;29;20096;-74
2023/09/24 10:15:30;;;;;;;13.70;2.40;;;;;;;;;;4872736;29;20041;-77
2023/09/24 10:18:11;;;;;;;9.35;1.85;;;25.80;99.90;;;;;;4863106;29;20045;-74
2023/09/24 10:20:49;;;;;;;24.77;2.42;;;25.80;99.90;;;;;;4881055;29;20060;-81
2023/09/24 10:23:30;;;;;;;6.80;1.95;;;25.90;99.90;;;;;;4898267;29;20049;-74
2023/09/24 10:26:00;;;;;;;11.13;2.10;;;;;;;;;;4892986;29;20032;-72
2023/09/24 10:28:48;;;;;;;6.93;1.65;;;26.30;99.90;;;;;;4886222;29;20033;-72
2023/09/24 10:31:16;;;;;;;6.60;1.80;;;;;;;;;;4890887;29;20064;-85
2023/09/24 10:33:58;;;;;;;3.03;1.20;;;;;;;;;;4885397;29;20029;-75
2023/09/24 10:36:29;;;;;;;5.55;1.38;;;;;;;;;;4892129;29;22502;-77
2023/09/24 10:39:03;;;;;;;4.63;1.92;;;;;;;;;;4891284;29;20060;-73
2023/09/24 10:41:29;;;;;;;6.78;1.75;;;;;;;;;;4893028;29;20021;-78
2023/09/24 10:44:22;;;;;;;6.22;1.38;;;26.40;99.90;;;;;;4891567;29;20037;-75
2023/09/24 10:46:48;;;;;;;5.95;1.70;;;;;;;;;;4886216;29;20035;-74
2023/09/24 10:49:18;;;;;;;3.60;1.50;;;;;;;;;;4862089;29;20071;-74
2023/09/24 10:51:44;;;;;;;4.32;1.70;;;;;;;;;;4889288;29;20036;-77
2023/09/24 10:54:12;;;;;;;5.20;1.75;;;26.60;99.90;;;;;;4887382;29;20154;-74
2023/09/24 10:56:38;;;;;;;5.60;1.58;;;;;;;;;;4880394;29;20053;-74
2023/09/24 10:59:04;;;;;;;6.30;2.17;;;;;;;;;;4890324;29;20040;-82
2023/09/24 11:01:31;;;;;;;7.95;3.17;;;;;;;;;;4891116;29;20416;-81
2023/09/24 11:03:57;;;;;;;5.97;2.42;;;;;;;;;;4895131;29;20036;-79
2023/09/24 11:06:32;;;;;;;8.07;1.73;;;26.40;99.90;;;;;;4896653;29;20033;-75
2023/09/24 11:09:14;;;;;;;3.78;1.48;;;26.60;99.90;;;;;;4890021;29;20041;-72
2023/09/24 11:11:40;;;;;;;5.95;1.55;;;;;;;;;;4894039;29;20033;-71
2023/09/24 11:14:15;;;;;;;6.75;2.13;;;;;;;;;;4890689;29;20441;-72
2023/09/24 11:16:41;;;;;;;3.83;1.52;;;;;;;;;;4889398;29;20044;-76
2023/09/24 11:19:07;;;;;;;3.70;1.60;;;;;;;;;;4873808;29;20037;-77
2023/09/24 11:21:33;;;;;;;2.58;1.48;;;;;;;;;;4872354;29;20039;-74
2023/09/24 11:23:59;;;;;;;4.28;2.20;;;;;;;;;;4888072;29;20119;-73
2023/09/24 11:26:28;;;;;;;4.40;2.17;;;;;;;;;;4890235;29;20604;-71
2023/09/24 11:28:57;;;;;;;6.38;3.25;;;;;;;;;;4890942;29;20499;-72
2023/09/24 11:31:26;;;;;;;5.60;1.92;;;22.10;99.90;;;;;;4892307;29;20033;-71
2023/09/24 11:33:56;;;;;;;6.93;1.70;;;;;;;;;;4889016;29;20073;-77
2023/09/24 11:36:27;;;;;;;5.53;1.80;;;;;;;;;;4889100;29;20036;-72
2023/09/24 11:39:03;;;;;;;5.18;1.83;;;;;;;;;;4889475;29;20383;-75
2023/09/24 11:41:29;;;;;;;44.70;27.23;;;;;;;;;;4889417;29;20027;-76
2023/09/24 11:43:58;;;;;;;6.28;1.60;;;;;;;;;;4886599;29;20071;-77
2023/09/24 11:46:32;;;;;;;4.75;1.55;;;;;;;;;;4885973;29;20032;-77
2023/09/24 11:48:59;;;;;;;6.60;1.52;;;;;;;;;;4882163;29;20041;-77
2023/09/24 11:51:26;;;;;;;3.03;1.40;;;;;;;;;;4887665;29;20108;-77
2023/09/24 11:53:52;;;;;;;7.90;1.55;;;;;;;;;;4896417;29;20025;-76
2023/09/24 11:56:18;;;;;;;5.15;1.40;;;;;;;;;;4895955;29;20024;-77
2023/09/24 11:58:44;;;;;;;4.13;1.70;;;;;;;;;;4894922;29;20081;-77
2023/09/24 12:01:11;;;;;;;4.72;1.50;;;;;;;;;;4895951;29;20079;-77
2023/09/24 12:03:37;;;;;;;4.07;1.50;;;;;;;;;;4885810;29;20092;-77
2023/09/24 12:06:03;;;;;;;2.28;1.15;;;;;;;;;;4889673;29;20124;-77
2023/09/24 12:08:29;;;;;;;6.70;1.35;;;;;;;;;;4893558;29;22162;-77
2023/09/24 12:10:55;;;;;;;4.55;1.52;;;;;;;;;;4894735;29;20055;-76
2023/09/24 12:13:22;;;;;;;6.60;1.60;;;;;;;;;;4880102;29;20029;-76
2023/09/24 12:15:48;;;;;;;4.65;1.45;;;;;;;;;;4879497;29;20044;-76
2023/09/24 12:18:14;;;;;;;3.80;1.13;;;;;;;;;;4895797;29;20506;-78
2023/09/24 12:20:42;;;;;;;4.47;1.77;;;;;;;;;;4893873;29;20045;-75
2023/09/24 12:23:08;;;;;;;3.55;1.42;;;;;;;;;;4894237;29;20025;-76
2023/09/24 12:25:35;;;;;;;4.18;1.30;;;;;;;;;;4892882;29;20104;-76
2023/09/24 12:28:03;;;;;;;4.72;1.40;;;20.70;99.90;;;;;;4895278;29;20025;-77
2023/09/24 12:30:29;;;;;;;6.68;1.23;;;;;;;;;;4898617;29;20061;-77
2023/09/24 12:32:55;;;;;;;7.68;1.48;;;;;;;;;;4884436;29;20072;-76
2023/09/24 12:35:21;;;;;;;2.22;1.33;;;;;;;;;;4887382;29;20507;-77
2023/09/24 12:37:47;;;;;;;6.85;1.25;;;;;;;;;;4894020;29;20499;-77
2023/09/24 12:40:13;;;;;;;7.50;1.38;;;;;;;;;;4895782;29;20479;-76
2023/09/24 12:42:40;;;;;;;2.45;1.20;;;;;;;;;;4894348;29;20119;-76
2023/09/24 12:45:06;;;;;;;2.83;1.15;;;;;;;;;;4893568;29;20383;-77
2023/09/24 12:47:33;;;;;;;8.15;1.50;;;;;;;;;;4860583;29;20112;-77
2023/09/24 12:50:00;;;;;;;5.63;1.50;;;;;;;;;;4876821;29;20550;-76
2023/09/24 12:52:26;;;;;;;4.20;1.10;;;;;;;;;;4876526;29;20390;-77
2023/09/24 12:54:52;;;;;;;3.25;1.10;;;;;;;;;;4891387;29;20032;-77
2023/09/24 12:57:18;;;;;;;4.88;1.40;;;;;;;;;;4892852;29;20057;-77
2023/09/24 12:59:44;;;;;;;3.03;1.15;;;;;;;;;;4895443;29;20056;-77
2023/09/24 13:02:10;;;;;;;6.47;1.77;;;;;;;;;;4895467;29;20399;-77
2023/09/24 13:04:37;;;;;;;5.10;1.65;;;;;;;;;;4866959;29;20037;-76
2023/09/24 13:07:03;;;;;;;4.25;1.30;;;;;;;;;;4872645;29;20037;-76
2023/09/24 13:09:29;;;;;;;5.13;1.55;;;;;;;;;;4895340;29;20043;-76
2023/09/24 13:11:58;;;;;;;3.85;1.48;;;;;;;;;;4892917;29;20498;-77
2023/09/24 13:14:24;;;;;;;5.20;1.35;;;;;;;;;;4893177;29;20431;-77
2023/09/24 13:16:52;;;;;;;3.22;1.23;;;;;;;;;;4890607;29;20033;-77
2023/09/24 13:19:18;;;;;;;5.03;1.33;;;;;;;;;;4895609;29;20041;-76
2023/09/24 13:21:44;;;;;;;4.28;1.20;;;;;;;;;;4895482;29;20025;-76
2023/09/24 13:24:11;;;;;;;5.40;1.30;;;;;;;;;;4883518;29;20108;-78
2023/09/24 13:26:39;;;;;;;4.05;1.67;;;;;;;;;;4886034;29;20043;-75
2023/09/24 13:29:06;;;;;;;4.50;2.22;;;21.80;99.90;;;;;;4891898;29;20104;-77
2023/09/24 13:31:32;;;;;;;5.50;1.40;;;;;;;;;;4892470;29;20037;-77
2023/09/24 13:34:04;;;;;;;2.90;1.40;;;;;;;;;;4887000;29;20033;-77
2023/09/24 13:36:33;;;;;;;4.93;1.53;;;21.80;99.90;;;;;;4884354;29;20136;-75
2023/09/24 13:38:59;;;;;;;4.03;1.48;;;;;;;;;;4895018;29;20403;-75
2023/09/24 13:41:26;;;;;;;6.22;2.13;;;;;;;;;;4889879;29;20033;-79
2023/09/24 13:43:53;;;;;;;10.32;3.53;;;;;;;;;;4890326;29;20654;-73
2023/09/24 13:46:19;;;;;;;49.17;34.20;;;;;;;;;;4887433;29;20646;-74
2023/09/24 13:48:46;;;;;;;5.65;1.52;;;;;;;;;;4888236;29;20040;-75
2023/09/24 13:51:12;;;;;;;2.63;1.02;;;;;;;;;;4892814;29;20056;-76
2023/09/24 13:53:39;;;;;;;6.10;1.60;;;;;;;;;;4895232;29;20039;-75
2023/09/24 13:56:10;;;;;;;4.00;1.42;;;;;;;;;;4893239;29;20025;-76
2023/09/24 13:58:36;;;;;;;4.88;1.40;;;;;;;;;;4874672;29;20403;-76
2023/09/24 14:01:03;;;;;;;6.07;1.50;;;;;;;;;;4892953;29;20040;-76
2023/09/24 14:03:29;;;;;;;7.05;1.27;;;;;;;;;;4893646;29;20351;-76
2023/09/24 14:05:56;;;;;;;5.57;1.00;;;;;;;;;;4892578;29;20367;-75
2023/09/24 14:13:52;;;;;;;3.72;1.27;;;;;;;;;;4880084;29;20056;-76
2023/09/24 14:16:18;;;;;;;7.47;1.77;;;;;;;;;;4890660;29;20032;-76
2023/09/24 14:18:44;;;;;;;4.40;1.67;;;;;;;;;;4893884;29;20024;-75
2023/09/24 14:21:11;;;;;;;2.97;0.98;;;;;;;;;;4892330;29;20055;-75
2023/09/24 14:23:37;;;;;;;4.93;1.40;;;;;;;;;;4893747;29;20044;-76
2023/09/24 14:26:03;;;;;;;3.05;0.85;;;;;;;;;;4889505;29;20506;-78
2023/09/24 14:28:29;;;;;;;4.05;1.00;;;;;;;;;;4893177;29;20140;-77
2023/09/24 14:30:55;;;;;;;3.35;1.15;;;;;;;;;;4895254;29;20131;-77
2023/09/24 14:33:21;;;;;;;3.15;1.50;;;;;;;;;;4873029;29;20032;-78
2023/09/24 14:35:47;;;;;;;2.75;1.00;;;;;;;;;;4867296;29;20037;-80
2023/09/24 14:38:13;;;;;;;3.75;1.20;;;;;;;;;;4893822;29;20125;-77
2023/09/24 14:40:39;;;;;;;2.55;1.13;;;;;;;;;;4873213;29;20043;-78